Time;durP1;ratioP1;P1;durP2;ratioP2;P2;SDS_P1;SDS_P2;PMS_P1;PMS_P2;Temp;Humidity;BMP_temperature;BMP_pressure;BME280_temperature;BME280_humidity;BME280_pressure;Samples;Min_cycle;Max_cycle;Signal;HPM_P1;HPM_P2
2021/09/13 00:01:44;;;;;;;;;6.75;6.00;;;;;20.97;41.74;101226.38;5018479;28;47298;-57
2021/09/13 00:04:09;;;;;;;;;10.50;7.75;;;;;20.94;42.09;101225.59;5020159;28;45229;-57
2021/09/13 00:06:34;;;;;;;;;8.75;7.25;;;;;20.94;42.02;101233.59;5020034;28;45219;-57
2021/09/13 00:09:00;;;;;;;;;6.00;6.00;;;;;20.92;41.96;101232.81;5020065;28;45248;-58
2021/09/13 00:11:25;;;;;;;;;8.75;7.75;;;;;20.91;42.20;101236.41;5019773;28;46329;-58
2021/09/13 00:13:51;;;;;;;;;7.25;6.50;;;;;20.91;41.88;101240.91;5018602;28;45250;-57
2021/09/13 00:16:17;;;;;;;;;7.00;6.25;;;;;20.90;42.28;101239.16;5019588;28;45274;-57
2021/09/13 00:18:42;;;;;;;;;8.75;8.75;;;;;20.86;41.79;101229.59;5020077;28;45774;-57
2021/09/13 00:21:07;;;;;;;;;6.75;5.75;;;;;20.88;42.30;101235.69;5019662;28;46307;-57
2021/09/13 00:23:33;;;;;;;;;7.75;7.75;;;;;20.86;42.04;101234.94;5019914;28;45300;-58
2021/09/13 00:25:59;;;;;;;;;8.50;6.50;;;;;20.83;42.34;101227.94;5019787;28;45447;-57
2021/09/13 00:28:24;;;;;;;;;6.50;6.50;;;;;20.82;42.53;101222.66;5019856;28;45567;-57
2021/09/13 00:30:49;;;;;;;;;6.00;6.00;;;;;20.80;42.05;101228.06;5019374;28;46288;-57
2021/09/13 00:33:15;;;;;;;;;7.00;7.00;;;;;20.78;42.52;101216.63;5016936;28;45251;-58
2021/09/13 00:35:40;;;;;;;;;7.00;6.50;;;;;20.71;42.15;101201.84;5016393;28;45453;-58
2021/09/13 00:38:06;;;;;;;;;8.50;7.75;;;;;20.77;42.21;101209.53;5018465;28;45610;-58
2021/09/13 00:40:31;;;;;;;;;6.50;6.50;;;;;20.76;42.34;101205.13;5019445;28;45340;-57
2021/09/13 00:42:56;;;;;;;;;7.00;7.00;;;;;20.74;42.37;101205.22;5019502;28;45299;-58
2021/09/13 00:45:22;;;;;;;;;9.50;8.00;;;;;20.72;42.06;101212.44;5016800;28;45247;-57
2021/09/13 00:47:47;;;;;;;;;6.25;6.00;;;;;20.70;42.68;101203.59;4999578;28;45638;-57
2021/09/13 00:50:13;;;;;;;;;9.25;8.00;;;;;20.70;42.78;101200.06;4999529;28;45221;-57
2021/09/13 00:52:38;;;;;;;;;7.50;7.50;;;;;20.67;42.69;101197.56;5000044;28;45229;-57
2021/09/13 00:55:05;;;;;;;;;7.25;7.25;;;;;20.67;42.46;101197.56;4999619;28;45167;-57
2021/09/13 00:57:30;;;;;;;;;7.00;7.00;;;;;20.63;42.50;101188.84;4998188;28;45452;-57
2021/09/13 00:59:56;;;;;;;;;6.00;6.00;;;;;20.62;42.97;101192.44;5011253;28;48616;-57
2021/09/13 01:02:22;;;;;;;;;7.50;7.00;;;;;20.62;42.61;101187.09;4998177;28;45288;-57
2021/09/13 01:04:48;;;;;;;;;8.00;7.50;;;;;20.59;42.50;101190.78;4999558;28;45341;-57
2021/09/13 01:07:14;;;;;;;;;9.25;8.00;;;;;20.56;42.85;101192.75;5000575;28;45345;-57
2021/09/13 01:09:39;;;;;;;;;8.00;7.75;;;;;20.57;42.57;101195.31;5002673;28;47204;-57
2021/09/13 01:12:05;;;;;;;;;7.25;7.25;;;;;20.54;42.78;101191.94;5002818;28;45325;-57
2021/09/13 01:14:38;;;;;;;;;7.00;7.00;;;;;20.54;43.06;101200.84;5002756;28;45467;-57
2021/09/13 01:17:04;;;;;;;;;5.25;5.25;;;;;20.53;43.26;101198.25;5002563;28;45858;-57
2021/09/13 01:19:30;;;;;;;;;10.50;9.00;;;;;20.51;42.84;101195.63;5002415;28;46290;-57
2021/09/13 01:21:59;;;;;;;;;7.50;6.75;;;;;20.49;43.13;101201.97;5002576;28;45414;-57
2021/09/13 01:24:25;;;;;;;;;9.00;6.50;;;;;20.50;43.34;101198.38;5002562;28;45302;-57
2021/09/13 01:26:50;;;;;;;;;6.00;6.00;;;;;20.49;43.01;101204.66;5002574;28;45328;-57
2021/09/13 01:29:16;;;;;;;;;9.25;7.50;;;;;20.48;42.95;101198.47;5002375;28;46401;-58
2021/09/13 01:31:41;;;;;;;;;8.25;7.75;;;;;20.47;43.15;101202.06;5002448;28;45295;-57
2021/09/13 01:34:06;;;;;;;;;7.75;7.50;;;;;20.46;43.27;101195.88;5017857;28;45203;-57
2021/09/13 01:36:32;;;;;;;;;7.75;6.50;;;;;20.46;43.46;101192.31;5012447;28;45198;-57
2021/09/13 01:38:57;;;;;;;;;6.00;5.00;;;;;20.45;43.34;101194.13;5014162;28;46160;-58
2021/09/13 01:41:22;;;;;;;;;6.00;5.00;;;;;20.45;43.08;101193.25;5012369;28;45334;-57
2021/09/13 01:43:48;;;;;;;;;8.00;6.50;;;;;20.42;43.26;101188.09;5022085;28;45327;-57
2021/09/13 01:46:13;;;;;;;;;9.00;7.00;;;;;20.44;43.11;101188.88;5010823;28;45760;-58
2021/09/13 01:48:39;;;;;;;;;10.25;8.25;;;;;20.43;43.61;101188.00;5002026;28;45377;-57
2021/09/13 01:51:04;;;;;;;;;8.25;7.00;;;;;20.39;43.18;101186.44;5002254;28;45470;-58
2021/09/13 01:53:29;;;;;;;;;9.75;7.25;;;;;20.39;43.48;101180.19;5017374;28;45317;-57
2021/09/13 01:55:55;;;;;;;;;7.25;6.25;;;;;20.39;43.62;101188.22;5021983;28;45321;-58
2021/09/13 01:58:20;;;;;;;;;9.00;8.00;;;;;20.38;43.41;101192.69;5021479;28;45416;-57
2021/09/13 02:00:46;;;;;;;;;6.50;6.25;;;;;20.34;43.49;101188.47;5020699;28;45230;-58
2021/09/13 02:03:11;;;;;;;;;12.25;7.75;;;;;20.36;43.54;101193.72;5022009;28;45288;-57
2021/09/13 02:05:36;;;;;;;;;8.25;6.75;;;;;20.32;43.69;101189.47;5021904;28;45404;-59
2021/09/13 02:08:02;;;;;;;;;7.00;7.00;;;;;20.32;43.49;101194.81;5021777;28;45491;-58
2021/09/13 02:10:27;;;;;;;;;9.50;9.50;;;;;20.29;43.32;101190.47;5021797;28;45249;-59
2021/09/13 02:12:53;;;;;;;;;8.00;6.00;;;;;20.27;43.80;101192.34;5021648;28;45218;-58
2021/09/13 02:15:18;;;;;;;;;8.50;8.50;;;;;20.25;43.63;101192.44;5020333;28;45204;-58
2021/09/13 02:17:44;;;;;;;;;9.00;8.00;;;;;20.24;43.73;101187.16;5019551;28;46844;-58
2021/09/13 02:20:11;;;;;;;;;8.50;7.00;;;;;20.22;43.31;101192.56;5021576;28;45265;-57
2021/09/13 02:22:36;;;;;;;;;8.25;7.50;;;;;20.21;43.38;101192.63;5021567;28;45222;-58
2021/09/13 02:25:03;;;;;;;;;9.50;9.50;;;;;20.18;43.23;101190.97;5021569;28;45169;-58
2021/09/13 02:27:28;;;;;;;;;6.75;6.75;;;;;20.17;43.78;101188.41;5021301;28;47484;-58
2021/09/13 02:29:53;;;;;;;;;10.25;9.50;;;;;20.16;43.91;101189.31;5021296;28;45364;-58
2021/09/13 02:32:19;;;;;;;;;7.50;7.50;;;;;20.13;43.84;101183.19;5021374;28;45470;-58
2021/09/13 02:34:44;;;;;;;;;8.50;7.50;;;;;20.11;43.59;101179.75;5016191;28;45340;-58
2021/09/13 02:37:10;;;;;;;;;7.00;7.00;;;;;20.08;43.98;101185.22;5021294;28;46123;-58
2021/09/13 02:39:35;;;;;;;;;8.25;8.25;;;;;20.08;43.98;101185.22;5021423;28;45330;-57
2021/09/13 02:42:00;;;;;;;;;11.00;9.00;;;;;20.00;43.47;101168.72;5021237;28;45473;-58
2021/09/13 02:44:26;;;;;;;;;8.75;8.75;;;;;20.03;43.95;101181.03;5021310;28;45594;-58
2021/09/13 02:46:51;;;;;;;;;11.00;10.00;;;;;20.01;44.07;101181.09;5020873;28;45311;-57
2021/09/13 02:49:16;;;;;;;;;7.75;7.75;;;;;20.02;44.20;101185.50;5021289;28;45302;-57
2021/09/13 02:51:42;;;;;;;;;8.00;7.75;;;;;20.01;43.66;101183.75;5021135;28;45443;-58
2021/09/13 02:54:07;;;;;;;;;9.25;9.25;;;;;20.00;44.19;101187.38;5021149;28;45230;-58
2021/09/13 02:56:33;;;;;;;;;8.00;8.00;;;;;20.00;43.59;101183.84;5020667;28;46118;-57
2021/09/13 02:58:58;;;;;;;;;10.75;8.75;;;;;19.96;43.98;101185.78;5021036;28;45328;-57
2021/09/13 03:01:23;;;;;;;;;9.75;9.50;;;;;19.97;44.27;101182.19;5020998;28;45736;-57
2021/09/13 03:03:49;;;;;;;;;8.75;6.75;;;;;19.97;44.03;101182.19;5021066;28;45518;-58
2021/09/13 03:06:15;;;;;;;;;9.75;9.75;;;;;19.96;44.27;101175.09;5019506;28;46918;-57
2021/09/13 03:08:41;;;;;;;;;7.75;7.75;;;;;19.96;44.21;101172.44;5019649;28;45953;-57
2021/09/13 03:11:08;;;;;;;;;10.25;9.50;;;;;19.92;43.99;101169.09;5021076;28;45230;-57
2021/09/13 03:13:33;;;;;;;;;8.25;7.75;;;;;19.94;44.22;101169.84;5020758;28;45448;-57
2021/09/13 03:15:58;;;;;;;;;10.50;9.00;;;;;19.92;44.39;101161.09;5020327;28;46280;-57
2021/09/13 03:18:24;;;;;;;;;8.50;8.00;;;;;19.94;44.41;101161.00;5020751;28;45318;-57
2021/09/13 03:20:49;;;;;;;;;9.50;9.00;;;;;19.92;44.03;101161.09;5021012;28;45688;-57
2021/09/13 03:23:14;;;;;;;;;8.50;8.50;;;;;19.91;44.03;101159.34;4999518;28;45603;-57
2021/09/13 03:25:40;;;;;;;;;7.75;7.75;;;;;19.91;44.01;101163.78;5000696;28;46106;-57
2021/09/13 03:28:05;;;;;;;;;9.00;9.00;;;;;19.88;44.45;101162.13;5000579;28;45343;-57
2021/09/13 03:30:31;;;;;;;;;8.25;7.00;;;;;19.88;44.45;101166.63;4999782;28;46472;-57
2021/09/13 03:32:56;;;;;;;;;11.50;9.75;;;;;19.85;44.25;101161.41;5000582;28;45278;-57
2021/09/13 03:35:21;;;;;;;;;9.00;8.75;;;;;19.84;44.00;101160.56;5017343;28;47305;-56
2021/09/13 03:37:47;;;;;;;;;11.00;9.75;;;;;19.83;44.67;101160.63;4999523;28;45297;-57
2021/09/13 03:40:13;;;;;;;;;10.25;9.50;;;;;19.81;44.02;101156.22;5000588;28;45625;-57
2021/09/13 03:42:38;;;;;;;;;7.25;7.25;;;;;19.77;44.27;101156.41;5002715;28;45196;-57
2021/09/13 03:45:04;;;;;;;;;7.25;7.25;;;;;19.79;44.16;101162.56;5012108;28;46179;-57
2021/09/13 03:47:30;;;;;;;;;7.00;7.00;;;;;19.75;44.60;101159.16;5000515;28;45513;-57
2021/09/13 03:49:55;;;;;;;;;10.25;8.50;;;;;19.74;44.53;101167.22;5000548;28;45867;-57
2021/09/13 03:52:20;;;;;;;;;9.75;7.25;;;;;19.72;44.55;101159.31;5000500;28;45555;-57
2021/09/13 03:54:46;;;;;;;;;10.00;9.50;;;;;19.70;44.26;101161.16;5000293;28;46095;-57
2021/09/13 03:57:11;;;;;;;;;12.50;10.25;;;;;19.67;44.60;101161.28;5000035;28;45407;-56
2021/09/13 03:59:36;;;;;;;;;7.50;7.50;;;;;19.67;44.25;101166.63;5000569;28;45805;-57
2021/09/13 04:02:02;;;;;;;;;7.00;6.25;;;;;19.65;44.39;101172.03;4999991;28;45396;-57
2021/09/13 04:04:29;;;;;;;;;9.25;8.25;;;;;19.62;44.47;101163.31;5000196;28;45338;-57
2021/09/13 04:07:25;;;;;;;;;8.50;8.50;;;;;19.60;44.39;101160.72;5000064;28;45351;-57
2021/09/13 04:12:24;;;;;;;;;8.00;8.00;;;;;19.57;44.74;101157.31;4999994;28;45654;-57
2021/09/13 04:14:50;;;;;;;;;7.25;7.00;;;;;19.55;44.71;101156.53;4999767;28;45965;-57
2021/09/13 04:17:15;;;;;;;;;8.75;8.00;;;;;19.54;44.80;101157.47;4999877;28;45387;-57
2021/09/13 04:19:42;;;;;;;;;9.00;9.00;;;;;19.51;44.45;101161.16;5000222;28;45311;-57
2021/09/13 04:22:08;;;;;;;;;7.75;7.75;;;;;19.49;44.91;101155.00;5009586;28;45510;-57
2021/09/13 04:24:33;;;;;;;;;9.00;9.00;;;;;19.46;44.80;101153.34;5014904;28;46308;-57
2021/09/13 04:26:58;;;;;;;;;8.50;7.75;;;;;19.45;44.65;101151.63;5009593;28;45257;-56
2021/09/13 04:29:24;;;;;;;;;7.75;6.25;;;;;19.43;44.81;101153.50;5019817;28;45202;-56
2021/09/13 04:31:49;;;;;;;;;8.00;8.00;;;;;19.41;44.46;101151.84;5007353;28;45423;-56
2021/09/13 04:34:15;;;;;;;;;9.25;9.25;;;;;19.38;44.67;101143.97;5004253;28;46292;-56
2021/09/13 04:36:40;;;;;;;;;11.50;9.00;;;;;19.37;44.55;101144.91;5015103;28;45242;-56
2021/09/13 04:39:05;;;;;;;;;9.50;8.25;;;;;19.33;44.97;101149.50;4999878;28;45440;-57
2021/09/13 04:41:31;;;;;;;;;8.25;8.00;;;;;19.31;45.20;101148.72;5001289;28;45400;-56
2021/09/13 04:43:56;;;;;;;;;8.50;8.50;;;;;19.30;44.77;101146.97;5002974;28;46227;-57
2021/09/13 04:46:21;;;;;;;;;6.75;6.50;;;;;19.27;44.80;101144.44;5014316;28;45297;-57
2021/09/13 04:48:47;;;;;;;;;9.50;9.50;;;;;19.25;45.15;101151.66;5005047;28;45205;-61
2021/09/13 04:51:12;;;;;;;;;9.25;9.25;;;;;19.24;44.96;101149.91;5003159;28;45294;-57
2021/09/13 04:53:38;;;;;;;;;11.00;10.50;;;;;19.20;45.11;101151.84;5002897;28;45454;-57
2021/09/13 04:56:03;;;;;;;;;8.00;8.00;;;;;19.20;44.99;101149.19;5002927;28;45369;-57
2021/09/13 04:58:29;;;;;;;;;9.00;8.00;;;;;19.17;45.13;101147.50;5002965;28;45250;-57
2021/09/13 05:00:55;;;;;;;;;9.00;7.50;;;;;19.16;45.11;101147.59;5003053;28;45414;-57
2021/09/13 05:03:20;;;;;;;;;10.00;9.00;;;;;19.15;44.99;101140.53;5002745;28;46131;-56
2021/09/13 05:05:45;;;;;;;;;11.75;10.25;;;;;19.11;45.14;101137.13;5003030;28;45389;-56
2021/09/13 05:08:11;;;;;;;;;9.00;8.75;;;;;19.09;45.09;101146.97;5002913;28;46001;-56
2021/09/13 05:10:36;;;;;;;;;10.25;10.25;;;;;19.07;45.33;101138.19;5002810;28;45398;-56
2021/09/13 05:13:02;;;;;;;;;10.00;8.00;;;;;19.05;45.16;101139.19;5002638;28;45256;-56
2021/09/13 05:15:28;;;;;;;;;8.00;8.00;;;;;19.03;45.28;101139.28;5002629;28;45254;-58
2021/09/13 05:17:53;;;;;;;;;7.75;7.75;;;;;19.02;45.30;101148.19;5002768;28;45210;-57
2021/09/13 05:20:18;;;;;;;;;8.50;8.50;;;;;18.99;45.43;101135.00;5001442;28;45461;-56
2021/09/13 05:22:44;;;;;;;;;10.75;10.00;;;;;18.98;45.56;101143.91;5002608;28;45238;-56
2021/09/13 05:25:09;;;;;;;;;12.00;10.25;;;;;18.96;45.18;101143.13;5002672;28;45301;-56
2021/09/13 05:27:35;;;;;;;;;8.00;7.25;;;;;18.94;45.30;101143.19;5002535;28;45235;-56
2021/09/13 05:30:01;;;;;;;;;8.75;8.75;;;;;18.92;45.76;101136.22;5002469;28;45448;-57
2021/09/13 05:32:27;;;;;;;;;10.75;9.00;;;;;18.93;45.10;101135.25;5002232;28;45623;-56
2021/09/13 05:34:53;;;;;;;;;10.00;9.50;;;;;18.91;45.60;101129.16;5015794;28;45477;-56
2021/09/13 05:37:18;;;;;;;;;11.00;10.00;;;;;18.90;45.44;101140.69;5005761;28;45325;-57
2021/09/13 05:39:43;;;;;;;;;13.25;9.75;;;;;18.88;45.47;101138.09;5002397;28;45372;-56
2021/09/13 05:42:10;;;;;;;;;10.00;10.00;;;;;18.83;45.51;101135.63;5013828;28;46355;-56
2021/09/13 05:44:35;;;;;;;;;13.50;11.50;;;;;18.84;45.57;101136.47;5010568;28;45370;-55
2021/09/13 05:47:01;;;;;;;;;10.75;8.75;;;;;18.83;45.49;101142.75;5005532;28;45262;-56
2021/09/13 05:49:26;;;;;;;;;12.00;9.00;;;;;18.82;45.72;101139.22;5002245;28;45528;-56
2021/09/13 05:51:52;;;;;;;;;10.50;8.50;;;;;18.77;45.47;101133.22;5016020;28;48629;-56
2021/09/13 05:54:21;;;;;;;;;12.75;10.50;;;;;18.76;45.55;101131.47;5020046;28;45714;-57
2021/09/13 05:56:54;;;;;;;;;11.50;9.50;;;;;18.77;45.51;101141.22;5021609;28;45249;-54
2021/09/13 05:59:22;;;;;;;;;13.25;13.25;;;;;18.76;45.83;101135.97;5020689;28;45579;-54
2021/09/13 06:01:48;;;;;;;;;9.25;9.25;;;;;18.72;45.74;101132.56;5021485;28;46139;-55
2021/09/13 06:04:13;;;;;;;;;14.00;11.00;;;;;18.75;45.88;101150.19;5021776;28;45308;-56
2021/09/13 06:06:39;;;;;;;;;8.75;8.75;;;;;18.74;45.86;101141.34;5021836;28;45308;-55
2021/09/13 06:09:05;;;;;;;;;10.75;9.75;;;;;18.74;45.98;101143.13;5021823;28;45412;-55
2021/09/13 06:11:30;;;;;;;;;14.00;11.75;;;;;18.73;45.93;101136.06;5021730;28;46139;-55
2021/09/13 06:13:56;;;;;;;;;12.25;12.25;;;;;18.72;46.10;101143.19;5021682;28;45312;-56
2021/09/13 06:16:22;;;;;;;;;11.25;9.50;;;;;18.71;45.97;101140.59;5020123;28;45322;-56
2021/09/13 06:18:47;;;;;;;;;19.50;15.75;;;;;18.71;45.52;101144.13;5021808;28;45456;-55
2021/09/13 06:21:13;;;;;;;;;13.75;13.00;;;;;18.71;45.98;101154.78;5021381;28;45395;-56
2021/09/13 06:23:38;;;;;;;;;12.50;12.50;;;;;18.70;45.91;101147.72;5021595;28;45261;-55
2021/09/13 06:26:03;;;;;;;;;12.50;11.50;;;;;18.72;46.28;101158.31;5021440;28;45293;-56
2021/09/13 06:28:29;;;;;;;;;10.25;10.25;;;;;18.71;46.08;101157.44;5021432;28;45156;-56
2021/09/13 06:30:55;;;;;;;;;9.75;9.50;;;;;18.71;45.91;101152.09;5021086;28;45285;-56
2021/09/13 06:33:20;;;;;;;;;16.00;12.00;;;;;18.67;45.92;101154.03;5019058;28;45186;-56
2021/09/13 06:35:46;;;;;;;;;14.75;13.50;;;;;18.70;46.21;101152.19;5018482;28;45217;-56
2021/09/13 06:38:11;;;;;;;;;14.50;11.25;;;;;18.70;46.24;101150.38;5021411;28;45502;-54
2021/09/13 06:40:37;;;;;;;;;15.25;14.25;;;;;18.70;46.27;101153.03;5019831;28;45447;-56
2021/09/13 06:43:02;;;;;;;;;16.75;15.75;;;;;18.71;46.23;101152.09;5021185;28;45349;-56
2021/09/13 06:45:27;;;;;;;;;14.75;14.00;;;;;18.71;46.36;101152.09;5017934;28;45936;-56
2021/09/13 06:47:53;;;;;;;;;14.50;13.75;;;;;18.72;46.23;101153.84;5001523;28;45381;-56
2021/09/13 06:50:25;;;;;;;;;14.00;13.50;;;;;18.72;46.28;101153.84;5001097;28;45321;-55
2021/09/13 06:52:52;;;;;;;;;16.50;13.00;;;;;18.74;46.17;101162.66;5001407;28;45999;-55
2021/09/13 06:55:18;;;;;;;;;14.50;12.00;;;;;18.73;46.42;101154.69;5000888;28;45326;-55
2021/09/13 06:57:44;;;;;;;;;9.50;9.50;;;;;18.76;46.41;101159.91;5000790;28;45500;-55
2021/09/13 07:00:12;;;;;;;;;9.50;9.25;;;;;18.80;46.49;101172.16;5013321;28;45999;-55
2021/09/13 07:02:39;;;;;;;;;9.00;7.25;;;;;18.82;46.65;101164.97;5012173;28;45393;-56
2021/09/13 07:05:06;;;;;;;;;16.00;12.25;;;;;18.84;46.82;101165.75;5020800;28;45326;-55
2021/09/13 07:07:31;;;;;;;;;10.75;10.00;;;;;18.87;46.44;101172.75;5020707;28;45476;-55
2021/09/13 07:09:57;;;;;;;;;11.75;11.75;;;;;18.90;46.34;101169.97;5020350;28;46089;-55
2021/09/13 07:12:22;;;;;;;;;14.50;12.75;;;;;18.92;46.76;101158.38;5020876;28;45487;-55
2021/09/13 07:14:47;;;;;;;;;15.25;14.00;;;;;18.94;46.59;101158.28;5020556;28;45370;-55
2021/09/13 07:17:13;;;;;;;;;13.50;10.75;;;;;18.97;46.75;101158.19;5020542;28;45296;-55
2021/09/13 07:19:39;;;;;;;;;12.25;8.00;;;;;19.02;46.72;101163.28;5020329;28;46026;-55
2021/09/13 07:22:04;;;;;;;;;12.75;11.50;;;;;19.05;46.63;101155.19;5019076;28;45342;-55
2021/09/13 07:24:29;;;;;;;;;11.50;11.50;;;;;19.10;46.70;101153.19;5020569;28;45502;-57
2021/09/13 07:26:55;;;;;;;;;13.50;10.25;;;;;19.11;46.84;101158.44;5020554;28;45328;-55
2021/09/13 07:29:20;;;;;;;;;12.00;10.00;;;;;19.16;46.46;101153.78;5020321;28;45413;-56
2021/09/13 07:31:45;;;;;;;;;14.25;11.00;;;;;19.20;46.76;101151.84;5020322;28;45300;-55
2021/09/13 07:34:11;;;;;;;;;18.25;13.00;;;;;19.25;46.87;101151.66;5015382;28;45243;-56
2021/09/13 07:36:36;;;;;;;;;12.50;11.50;;;;;19.28;46.52;101149.72;5020315;28;45288;-56
2021/09/13 07:39:02;;;;;;;;;12.25;8.00;;;;;19.33;46.75;101157.47;5020035;28;46805;-57
2021/09/13 07:41:28;;;;;;;;;11.00;7.50;;;;;19.36;47.10;101157.38;5020329;28;45315;-56
2021/09/13 07:43:53;;;;;;;;;10.75;10.00;;;;;19.40;46.74;101155.44;5020074;28;45490;-55
2021/09/13 07:46:18;;;;;;;;;10.25;10.25;;;;;19.45;47.06;101150.75;5020186;28;45401;-56
2021/09/13 07:48:44;;;;;;;;;12.50;11.25;;;;;19.48;46.67;101151.50;5002565;28;46209;-57
2021/09/13 07:51:09;;;;;;;;;11.25;9.50;;;;;19.52;46.49;101149.56;5000398;28;45378;-56
2021/09/13 07:53:35;;;;;;;;;9.50;9.50;;;;;19.57;47.17;101157.31;5000370;28;45277;-55
2021/09/13 07:56:00;;;;;;;;;10.00;9.00;;;;;19.61;46.85;101156.28;5000367;28;45209;-55
2021/09/13 07:58:25;;;;;;;;;9.50;9.50;;;;;19.67;47.06;101147.13;5000018;28;46061;-55
2021/09/13 08:00:51;;;;;;;;;11.75;10.00;;;;;19.71;46.59;101143.34;5000180;28;45388;-56
2021/09/13 08:03:16;;;;;;;;;12.00;10.25;;;;;19.74;46.56;101138.75;5000270;28;45175;-56
2021/09/13 08:05:42;;;;;;;;;14.50;11.00;;;;;19.83;46.55;101141.97;5000232;28;45151;-54
2021/09/13 08:08:07;;;;;;;;;12.25;12.00;;;;;19.87;46.98;101132.88;5012326;28;47155;-57
2021/09/13 08:10:33;;;;;;;;;14.00;14.00;;;;;19.93;46.70;101143.25;5010404;28;45356;-57
2021/09/13 08:12:58;;;;;;;;;13.50;13.25;;;;;19.96;47.14;101133.31;5019771;28;45545;-56
2021/09/13 08:15:24;;;;;;;;;14.25;12.75;;;;;20.03;46.59;101141.88;5019538;28;45397;-57
2021/09/13 08:17:50;;;;;;;;;13.25;12.00;;;;;20.09;46.66;101133.59;5019462;28;46039;-57
2021/09/13 08:20:15;;;;;;;;;17.75;14.00;;;;;20.13;47.16;101127.16;5019797;28;45420;-56
2021/09/13 08:22:41;;;;;;;;;11.25;11.25;;;;;20.21;46.76;101125.94;5019793;28;45848;-57
2021/09/13 08:25:07;;;;;;;;;10.00;9.00;;;;;20.28;47.27;101124.72;5019932;28;45405;-57
2021/09/13 08:27:32;;;;;;;;;12.00;12.00;;;;;20.32;47.26;101126.28;5019327;28;46793;-57
2021/09/13 08:29:57;;;;;;;;;14.50;13.00;;;;;20.38;47.04;101128.66;5018389;28;46069;-57
2021/09/13 08:32:23;;;;;;;;;10.50;10.00;;;;;20.48;46.86;101133.50;5019474;28;45185;-57
2021/09/13 08:34:50;;;;;;;;;10.75;10.25;;;;;20.55;46.86;101132.28;5013426;28;45488;-57
2021/09/13 08:37:16;;;;;;;;;13.25;10.25;;;;;20.62;47.05;101115.00;5003289;28;46813;-57
2021/09/13 08:39:41;;;;;;;;;13.00;12.00;;;;;20.69;46.17;101112.91;4999884;28;45314;-57
2021/09/13 08:42:06;;;;;;;;;11.25;9.25;;;;;20.76;46.47;101107.19;4999650;28;45422;-57
2021/09/13 08:44:33;;;;;;;;;9.25;7.75;;;;;20.85;46.43;101108.53;4999807;28;45173;-57
2021/09/13 08:47:07;;;;;;;;;14.00;10.25;;;;;20.93;46.83;101108.16;4999466;28;46026;-57
2021/09/13 08:49:36;;;;;;;;;10.00;9.25;;;;;21.01;46.86;101108.59;4999750;28;45280;-57
2021/09/13 08:52:03;;;;;;;;;6.50;6.50;;;;;21.07;46.65;101107.44;4999624;28;45375;-57
2021/09/13 08:54:31;;;;;;;;;9.25;8.00;;;;;21.16;46.54;101116.75;4999617;28;45467;-57
2021/09/13 08:57:03;;;;;;;;;7.75;6.50;;;;;21.23;46.52;101112.81;4998936;28;46272;-57
2021/09/13 08:59:31;;;;;;;;;12.75;9.75;;;;;21.34;46.31;101122.94;4999601;28;45219;-57
2021/09/13 09:01:59;;;;;;;;;14.25;11.25;;;;;21.43;46.44;101128.66;4999258;28;45179;-57
2021/09/13 09:04:24;;;;;;;;;9.50;9.50;;;;;21.51;46.49;101135.38;4999617;28;45297;-57
2021/09/13 09:06:50;;;;;;;;;10.75;10.75;;;;;21.59;46.44;101141.22;4999308;28;46098;-57
2021/09/13 09:09:20;;;;;;;;;11.75;11.75;;;;;21.68;46.61;101147.88;4999584;28;45503;-57
2021/09/13 09:12:01;;;;;;;;;9.00;8.00;;;;;21.80;46.32;101140.97;4999397;28;45244;-57
2021/09/13 09:14:34;;;;;;;;;9.75;9.75;;;;;21.90;46.15;101131.53;4999131;28;45512;-58
2021/09/13 09:17:05;;;;;;;;;11.00;9.50;;;;;22.00;46.64;101137.19;4998954;28;46127;-58
2021/09/13 09:19:31;;;;;;;;;7.75;7.75;;;;;22.08;46.37;101135.81;4999215;28;45328;-57
2021/09/13 09:21:57;;;;;;;;;6.25;6.00;;;;;22.20;46.08;101144.09;4999391;28;45250;-58
2021/09/13 09:24:22;;;;;;;;;6.25;6.25;;;;;22.31;45.95;101141.66;4999282;28;45237;-58
2021/09/13 09:27:05;;;;;;;;;6.25;6.00;;;;;22.44;46.31;101135.63;4999060;28;47171;-57
2021/09/13 09:29:33;;;;;;;;;9.25;9.00;;;;;22.55;46.19;101133.19;5001891;28;45234;-58
2021/09/13 09:31:59;;;;;;;;;8.75;8.00;;;;;22.67;45.83;101127.13;5002465;28;45449;-58
2021/09/13 09:34:27;;;;;;;;;8.50;8.00;;;;;22.78;45.92;101118.47;5008417;28;45471;-57
2021/09/13 09:36:59;;;;;;;;;8.00;7.75;;;;;22.90;45.94;101116.84;5022073;28;47009;-58
2021/09/13 09:39:32;;;;;;;;;11.75;8.00;;;;;23.03;46.08;101119.66;5022305;28;45353;-57
2021/09/13 09:41:58;;;;;;;;;8.00;6.00;;;;;23.15;46.15;101126.09;5022030;28;45415;-57
2021/09/13 09:44:25;;;;;;;;;7.50;7.50;;;;;23.26;45.95;101118.28;5022072;28;45265;-58
2021/09/13 09:46:53;;;;;;;;;6.50;6.25;;;;;23.40;45.80;101114.75;5006780;28;46197;-57
2021/09/13 09:49:21;;;;;;;;;7.00;6.50;;;;;23.53;46.01;101109.47;5002299;28;45199;-57
2021/09/13 09:51:54;;;;;;;;;8.25;8.25;;;;;23.66;45.69;101114.91;5002256;28;45271;-57
2021/09/13 09:54:22;;;;;;;;;8.00;7.50;;;;;23.79;45.63;101123.06;5002224;28;45369;-57
2021/09/13 09:56:57;;;;;;;;;6.75;6.75;;;;;23.92;45.69;101120.47;5001535;28;46600;-57
2021/09/13 09:59:23;;;;;;;;;9.50;8.25;;;;;24.03;45.37;101117.94;5012208;28;45583;-57
2021/09/13 10:01:50;;;;;;;;;4.25;4.25;;;;;24.15;45.40;101111.78;5003938;28;45297;-57
2021/09/13 10:04:20;;;;;;;;;7.25;7.25;;;;;24.27;45.41;101103.88;5002186;28;45441;-57
2021/09/13 10:06:50;;;;;;;;;6.75;6.75;;;;;24.38;45.19;101100.47;5001775;28;46177;-57
2021/09/13 10:09:16;;;;;;;;;8.00;8.00;;;;;24.49;45.49;101088.03;5001847;28;45293;-57
2021/09/13 10:11:43;;;;;;;;;7.50;6.00;;;;;24.62;45.03;101084.53;5001936;28;45274;-57
2021/09/13 10:14:11;;;;;;;;;8.00;8.00;;;;;24.73;45.10;101079.31;5001804;28;45207;-58
2021/09/13 10:16:38;;;;;;;;;7.50;6.00;;;;;24.84;45.01;101070.50;5001351;28;45341;-57
2021/09/13 10:19:04;;;;;;;;;8.25;6.50;;;;;24.95;44.95;101067.91;5001817;28;45440;-58
2021/09/13 10:21:29;;;;;;;;;9.50;6.00;;;;;25.07;44.79;101070.72;5001693;28;45329;-58
2021/09/13 10:23:55;;;;;;;;;8.50;8.50;;;;;25.18;45.12;101070.81;5001701;28;45400;-58
2021/09/13 10:26:21;;;;;;;;;5.00;5.00;;;;;25.31;44.89;101073.50;5000356;28;47144;-58
2021/09/13 10:29:02;;;;;;;;;7.75;6.00;;;;;25.44;44.93;101065.44;5001516;28;45332;-58
2021/09/13 10:31:42;;;;;;;;;7.75;7.75;;;;;25.58;44.32;101065.28;5010068;28;45250;-58
2021/09/13 10:34:17;;;;;;;;;6.75;6.00;;;;;25.73;44.88;101062.47;5016249;28;45289;-58
2021/09/13 10:37:03;;;;;;;;;7.75;6.25;;;;;25.89;44.11;101063.06;5021370;28;46409;-58
2021/09/13 10:39:59;;;;;;;;;4.75;3.75;;;;;26.07;44.50;101065.38;5020952;28;45233;-58
2021/09/13 10:42:42;;;;;;;;;7.00;6.75;;;;;26.24;44.55;101062.28;5021172;28;45166;-58
2021/09/13 10:45:22;;;;;;;;;6.75;5.00;;;;;26.42;44.49;101048.38;5019016;28;45502;-58
2021/09/13 10:48:00;;;;;;;;;5.75;5.00;;;;;26.58;44.27;101050.78;5001236;28;46315;-58
2021/09/13 10:50:25;;;;;;;;;6.25;6.25;;;;;26.75;44.06;101046.78;5001041;28;45593;-58
2021/09/13 10:52:55;;;;;;;;;6.00;5.00;;;;;26.93;44.41;101050.75;5001389;28;45606;-58
2021/09/13 10:55:31;;;;;;;;;5.00;5.00;;;;;27.12;44.00;101052.00;5001103;28;45405;-58
2021/09/13 10:58:05;;;;;;;;;8.00;7.00;;;;;27.35;43.63;101049.28;5000760;28;46298;-56
2021/09/13 11:00:40;;;;;;;;;8.25;5.00;;;;;27.60;43.70;101055.41;5007917;28;45329;-57
2021/09/13 11:03:18;;;;;;;;;6.50;5.50;;;;;27.85;43.57;101046.16;5019832;28;45263;-56
2021/09/13 11:05:43;;;;;;;;;6.75;6.75;;;;;28.10;43.48;101038.72;5020835;28;45482;-55
2021/09/13 11:08:27;;;;;;;;;7.00;6.25;;;;;28.42;43.98;101036.00;5020524;28;46213;-56
2021/09/13 11:10:52;;;;;;;;;7.00;7.00;;;;;28.72;44.24;101039.78;5020944;28;45368;-57
2021/09/13 11:13:18;;;;;;;;;8.50;6.75;;;;;29.02;43.51;101036.25;5020633;28;45358;-56
2021/09/13 11:15:47;;;;;;;;;5.00;5.00;;;;;29.34;43.58;101031.69;5019176;28;45410;-56
2021/09/13 11:18:33;;;;;;;;;10.25;7.25;;;;;29.72;43.63;101035.50;5019192;28;47845;-56
2021/09/13 11:21:19;;;;;;;;;6.50;6.25;;;;;30.10;43.69;101033.00;5020554;28;45471;-57